Time;durP1;ratioP1;P1;durP2;ratioP2;P2;SDS_P1;SDS_P2;PMS_P1;PMS_P2;Temp;Humidity;BMP_temperature;BMP_pressure;BME280_temperature;BME280_humidity;BME280_pressure;Samples;Min_cycle;Max_cycle;Signal;HPM_P1;HPM_P2
2024/02/19 00:02:36;;;;;;;0.93;0.93;;;10.50;99.90;;;;;;10480921;28;20430;-60
2024/02/19 00:07:38;;;;;;;0.30;0.30;;;10.30;99.90;;;;;;10465302;28;20527;-61
2024/02/19 00:12:42;;;;;;;0.97;0.97;;;10.00;99.90;;;;;;10471088;28;20059;-61
2024/02/19 00:17:44;;;;;;;4.03;2.13;;;9.50;99.90;;;;;;10471829;28;20840;-61
2024/02/19 00:22:47;;;;;;;0.10;0.10;;;9.80;99.90;;;;;;10475568;28;20055;-60
2024/02/19 00:27:52;;;;;;;0.10;0.10;;;9.60;99.90;;;;;;10480743;28;20051;-62
2024/02/19 00:32:54;;;;;;;0.10;0.10;;;9.80;99.90;;;;;;10483904;28;20056;-61
2024/02/19 00:37:56;;;;;;;0.93;0.93;;;9.90;99.90;;;;;;10478557;28;20051;-61
2024/02/19 00:42:59;;;;;;;0.13;0.13;;;9.60;99.90;;;;;;10473664;28;20049;-61
2024/02/19 00:48:01;;;;;;;0.15;0.15;;;10.00;99.90;;;;;;10472089;28;20047;-61
2024/02/19 00:53:05;;;;;;;0.93;0.73;;;10.50;99.90;;;;;;10478104;28;20174;-62
2024/02/19 00:58:08;;;;;;;0.10;0.10;;;10.40;99.90;;;;;;10474668;28;20044;-62
2024/02/19 01:03:11;;;;;;;1.98;1.08;;;9.80;99.90;;;;;;10477579;28;20092;-61
2024/02/19 01:08:13;;;;;;;0.30;0.30;;;9.90;99.90;;;;;;10475770;28;20136;-60
2024/02/19 01:13:17;;;;;;;9.43;4.23;;;10.10;99.90;;;;;;10476052;28;20068;-60
2024/02/19 01:18:19;;;;;;;0.20;0.20;;;9.70;99.90;;;;;;10475363;28;20519;-61
2024/02/19 01:23:21;;;;;;;0.10;0.10;;;10.60;99.90;;;;;;10490508;28;20052;-58
2024/02/19 01:28:24;;;;;;;0.20;0.20;;;10.30;99.90;;;;;;10486177;28;20415;-59
2024/02/19 01:33:26;;;;;;;0.40;0.40;;;9.90;99.90;;;;;;10479679;28;20875;-60
2024/02/19 01:38:28;;;;;;;0.20;0.20;;;9.70;99.90;;;;;;10472184;28;20158;-60
2024/02/19 01:43:32;;;;;;;8.02;2.80;;;9.70;99.90;;;;;;10476232;28;20053;-60
2024/02/19 01:48:34;;;;;;;0.30;0.30;;;10.20;99.90;;;;;;10478218;28;20769;-61
2024/02/19 01:53:36;;;;;;;0.10;0.10;;;10.30;99.90;;;;;;10476929;28;20094;-64
2024/02/19 01:58:40;;;;;;;0.22;0.22;;;10.20;99.90;;;;;;10473477;28;20048;-60
2024/02/19 02:03:43;;;;;;;1.60;1.50;;;11.00;99.90;;;;;;10471332;28;20651;-60
2024/02/19 02:08:47;;;;;;;0.20;0.20;;;11.30;99.90;;;;;;10468329;28;20048;-61
2024/02/19 02:13:50;;;;;;;;;;;10.90;99.90;;;;;;10467395;28;20747;-60
2024/02/19 02:18:52;;;;;;;0.10;0.10;;;10.40;99.90;;;;;;10503868;28;20728;-61
2024/02/19 02:23:54;;;;;;;0.10;0.10;;;10.00;99.90;;;;;;10481987;28;20760;-60
2024/02/19 02:28:57;;;;;;;0.82;0.82;;;10.20;99.90;;;;;;10481645;28;20090;-61
2024/02/19 02:33:59;;;;;;;0.10;0.10;;;10.10;99.90;;;;;;10484294;28;20053;-61
2024/02/19 02:39:02;;;;;;;0.10;0.10;;;10.20;99.90;;;;;;10488338;28;20481;-58
2024/02/19 02:44:05;;;;;;;0.20;0.20;;;10.30;99.90;;;;;;10481044;28;20054;-61
2024/02/19 02:49:07;;;;;;;0.10;0.10;;;10.00;99.90;;;;;;10490182;28;20147;-61
2024/02/19 02:54:10;;;;;;;0.20;0.20;;;10.00;99.90;;;;;;10482023;28;20051;-60
2024/02/19 02:59:13;;;;;;;0.10;0.10;;;10.10;99.90;;;;;;10484983;28;20861;-61
2024/02/19 03:04:16;;;;;;;0.20;0.20;;;10.00;99.90;;;;;;10482402;28;20871;-61
2024/02/19 03:09:18;;;;;;;0.13;0.13;;;10.50;99.90;;;;;;10478675;28;20626;-61
2024/02/19 03:14:21;;;;;;;0.10;0.10;;;10.80;99.90;;;;;;10482977;28;20487;-61
2024/02/19 03:19:23;;;;;;;0.15;0.15;;;10.90;99.90;;;;;;10484300;28;20060;-63
2024/02/19 03:24:25;;;;;;;0.20;0.20;;;10.90;99.90;;;;;;10480787;28;20130;-64
2024/02/19 03:29:29;;;;;;;0.08;0.08;;;10.30;99.90;;;;;;10464551;28;20958;-63
2024/02/19 03:34:31;;;;;;;0.30;0.30;;;10.40;99.90;;;;;;10474748;28;20060;-62
2024/02/19 03:39:33;;;;;;;0.15;0.15;;;10.30;99.90;;;;;;10470181;28;20864;-61
2024/02/19 03:44:37;;;;;;;0.10;0.10;;;10.20;99.90;;;;;;10472309;28;20826;-62
2024/02/19 03:49:38;;;;;;;0.20;0.20;;;10.20;99.90;;;;;;10476284;28;20155;-61
2024/02/19 03:54:41;;;;;;;0.10;0.10;;;10.20;99.90;;;;;;10470697;28;20055;-62
2024/02/19 04:15:31;;;;;;;0.10;0.10;;;10.00;99.90;;;;;;10538283;27;20120;-61
2024/02/19 04:20:33;;;;;;;0.47;0.47;;;10.40;99.90;;;;;;10563581;28;20048;-60
2024/02/19 04:25:35;;;;;;;0.10;0.10;;;10.20;99.90;;;;;;10559292;28;20889;-61
2024/02/19 04:30:39;;;;;;;0.10;0.10;;;10.20;99.90;;;;;;10548011;28;20051;-59
2024/02/19 04:35:41;;;;;;;0.40;0.40;;;10.00;99.90;;;;;;10558145;28;20088;-61
2024/02/19 04:40:43;;;;;;;0.20;0.20;;;10.10;99.90;;;;;;10559645;28;20135;-61
2024/02/19 04:45:47;;;;;;;0.10;0.10;;;10.10;99.90;;;;;;10556268;27;20055;-61
2024/02/19 04:50:49;;;;;;;0.20;0.20;;;10.30;99.90;;;;;;10559212;27;20051;-61
2024/02/19 04:55:52;;;;;;;0.30;0.30;;;10.40;99.90;;;;;;10560751;28;20051;-61
2024/02/19 05:00:55;;;;;;;0.20;0.20;;;10.00;99.90;;;;;;10558427;28;20171;-60
2024/02/19 05:05:57;;;;;;;0.10;0.10;;;10.20;99.90;;;;;;10553755;27;20079;-60
2024/02/19 05:10:59;;;;;;;0.13;0.13;;;10.10;99.90;;;;;;10554071;28;20063;-62
2024/02/19 05:16:03;;;;;;;0.10;0.10;;;10.40;99.90;;;;;;10550965;28;20059;-61
2024/02/19 05:21:06;;;;;;;0.88;0.88;;;10.20;99.90;;;;;;10548129;28;20052;-61
2024/02/19 05:26:08;;;;;;;0.57;0.40;;;9.90;99.90;;;;;;10521840;28;20114;-61
2024/02/19 05:31:11;;;;;;;0.15;0.15;;;10.30;99.90;;;;;;10522987;28;20048;-60
2024/02/19 05:36:13;;;;;;;0.73;0.73;;;10.20;99.90;;;;;;10525648;28;20787;-61
2024/02/19 05:41:15;;;;;;;0.47;0.47;;;10.00;99.90;;;;;;10528702;28;20043;-61
2024/02/19 05:46:19;;;;;;;1.02;0.93;;;10.30;99.90;;;;;;10521482;28;20140;-61
2024/02/19 05:51:22;;;;;;;1.00;0.82;;;10.10;99.90;;;;;;10531747;28;20039;-61
2024/02/19 05:56:24;;;;;;;0.10;0.10;;;10.20;99.90;;;;;;10522469;28;20049;-62
2024/02/19 06:01:28;;;;;;;3.75;2.70;;;10.20;99.90;;;;;;10529151;28;20055;-60
2024/02/19 06:06:31;;;;;;;0.10;0.10;;;10.20;99.90;;;;;;10507031;28;20056;-61
2024/02/19 06:11:32;;;;;;;0.10;0.10;;;10.10;99.90;;;;;;10520433;28;20078;-60
2024/02/19 06:16:36;;;;;;;0.40;0.40;;;10.60;99.90;;;;;;10524061;28;20059;-61
2024/02/19 06:21:38;;;;;;;1.85;1.38;;;11.10;99.90;;;;;;10517666;28;20113;-62
2024/02/19 06:26:40;;;;;;;1.55;1.45;;;12.50;99.90;;;;;;10523718;28;20392;-61
2024/02/19 06:31:46;;;;;;;0.25;0.25;;;13.00;99.90;;;;;;10528644;28;20260;-60
2024/02/19 06:36:48;;;;;;;2.30;1.08;;;13.10;99.90;;;;;;10519839;28;20134;-61
2024/02/19 06:41:50;;;;;;;0.47;0.47;;;12.70;99.90;;;;;;10521229;28;20047;-61
2024/02/19 06:46:53;;;;;;;26.83;4.75;;;11.90;99.90;;;;;;10514089;28;20053;-61
2024/02/19 06:51:55;;;;;;;32.90;4.32;;;11.30;99.90;;;;;;10502271;28;20710;-62
2024/02/19 06:56:57;;;;;;;24.73;2.67;;;11.60;99.90;;;;;;10502174;28;20600;-62
2024/02/19 07:02:00;;;;;;;18.88;4.07;;;12.00;99.90;;;;;;10513027;28;20057;-62
2024/02/19 07:07:08;;;;;;;14.25;3.95;;;11.90;99.90;;;;;;10509414;28;20052;-59
2024/02/19 07:12:11;;;;;;;23.33;3.60;;;11.50;99.90;;;;;;10501064;28;20518;-60
2024/02/19 07:17:14;;;;;;;21.52;3.45;;;11.70;99.90;;;;;;10510943;28;20051;-61
2024/02/19 07:22:16;;;;;;;23.63;4.13;;;11.90;99.90;;;;;;10510646;28;20209;-61
2024/02/19 07:27:18;;;;;;;18.27;3.83;;;11.70;99.90;;;;;;10498346;28;20052;-60
2024/02/19 07:32:22;;;;;;;24.17;4.27;;;11.00;99.90;;;;;;10507555;28;20824;-62
2024/02/19 07:37:26;;;;;;;24.92;4.50;;;10.80;99.90;;;;;;10488638;28;20064;-61
2024/02/19 07:42:28;;;;;;;28.58;4.00;;;11.10;99.90;;;;;;10509145;28;20070;-61
2024/02/19 07:47:31;;;;;;;22.60;3.88;;;11.10;99.90;;;;;;10492180;28;20056;-60
2024/02/19 07:52:33;;;;;;;23.38;4.60;;;11.40;99.90;;;;;;10500385;28;20050;-61
2024/02/19 07:57:35;;;;;;;23.08;4.18;;;11.40;99.90;;;;;;10499138;28;20084;-62
2024/02/19 08:02:39;;;;;;;9.27;2.78;;;12.00;99.90;;;;;;10488227;28;20075;-61
2024/02/19 08:07:41;;;;;;;13.93;3.38;;;11.80;99.90;;;;;;10508466;28;20264;-61
2024/02/19 08:12:43;;;;;;;17.47;5.67;;;11.60;99.90;;;;;;10493880;28;20561;-62
2024/02/19 08:17:46;;;;;;;17.50;4.38;;;10.90;99.90;;;;;;10499081;28;20717;-61
2024/02/19 08:22:48;;;;;;;18.88;4.03;;;10.60;99.90;;;;;;10511084;28;20213;-61
2024/02/19 08:27:50;;;;;;;16.95;4.05;;;10.90;99.90;;;;;;10506178;28;20063;-62
2024/02/19 08:32:54;;;;;;;23.52;3.67;;;11.10;99.90;;;;;;10495503;28;20044;-61
2024/02/19 08:37:58;;;;;;;24.83;3.97;;;10.80;99.90;;;;;;10507251;28;20055;-60
2024/02/19 08:43:01;;;;;;;23.25;4.05;;;11.00;99.90;;;;;;10510172;28;20047;-61
2024/02/19 08:48:05;;;;;;;21.00;4.70;;;10.70;99.90;;;;;;10507237;28;20058;-61
2024/02/19 08:53:07;;;;;;;13.40;2.92;;;11.10;99.90;;;;;;10503676;28;20076;-61
2024/02/19 08:58:09;;;;;;;14.20;3.17;;;10.50;99.90;;;;;;10513217;28;20517;-61
2024/02/19 09:03:12;;;;;;;9.27;2.42;;;10.90;99.90;;;;;;10515200;28;20811;-61
2024/02/19 09:08:14;;;;;;;19.83;4.75;;;10.90;99.90;;;;;;10515478;28;20090;-61
2024/02/19 09:13:17;;;;;;;26.80;3.22;;;10.60;99.90;;;;;;10511936;28;20098;-61
2024/02/19 09:18:20;;;;;;;17.65;3.20;;;10.60;99.90;;;;;;10510379;28;20079;-61
2024/02/19 09:23:22;;;;;;;18.70;3.78;;;10.80;99.90;;;;;;10508564;28;20040;-62
2024/02/19 09:28:25;;;;;;;18.73;3.60;;;10.90;99.90;;;;;;10519300;28;20072;-59
2024/02/19 09:33:28;;;;;;;13.23;3.30;;;10.90;99.90;;;;;;10511152;28;20552;-61
2024/02/19 09:38:30;;;;;;;23.02;4.75;;;11.20;99.90;;;;;;10510133;28;20435;-62
2024/02/19 09:43:32;;;;;;;20.90;5.13;;;11.00;99.90;;;;;;10513217;28;20533;-63
2024/02/19 09:48:39;;;;;;;20.25;4.55;;;11.40;99.90;;;;;;10516707;28;20062;-61
2024/02/19 09:53:44;;;;;;;14.52;3.35;;;11.20;99.90;;;;;;10510943;28;20115;-62
2024/02/19 09:58:47;;;;;;;19.33;3.22;;;11.30;99.90;;;;;;10520010;28;20115;-60
2024/02/19 10:03:51;;;;;;;14.95;3.08;;;11.60;99.90;;;;;;10510171;28;20060;-61
2024/02/19 10:08:54;;;;;;;16.13;3.33;;;11.60;99.90;;;;;;10503730;28;20052;-61
2024/02/19 10:13:56;;;;;;;13.00;2.70;;;11.80;99.90;;;;;;10509779;28;20099;-61
2024/02/19 10:19:05;;;;;;;9.33;1.83;;;11.50;99.90;;;;;;10519359;28;20044;-58
2024/02/19 10:24:08;;;;;;;7.45;2.17;;;11.90;99.90;;;;;;10509859;28;20495;-64
2024/02/19 10:29:10;;;;;;;13.63;3.30;;;11.80;99.90;;;;;;10516670;28;20059;-61
2024/02/19 10:34:15;;;;;;;21.27;3.80;;;11.70;99.90;;;;;;10500093;28;20832;-61
2024/02/19 10:39:18;;;;;;;15.75;3.88;;;11.40;99.90;;;;;;10508013;28;20052;-63
2024/02/19 10:44:20;;;;;;;15.50;4.10;;;12.00;99.90;;;;;;10501936;28;20048;-61
2024/02/19 10:49:24;;;;;;;23.17;5.50;;;11.50;99.90;;;;;;10502694;28;20997;-61
2024/02/19 10:54:29;;;;;;;25.20;5.93;;;11.50;99.90;;;;;;10497905;28;20612;-61
2024/02/19 10:59:32;;;;;;;21.15;5.68;;;11.20;99.90;;;;;;10501596;28;20081;-60
2024/02/19 11:04:35;;;;;;;21.37;5.80;;;11.40;99.90;;;;;;10497334;28;20125;-62
2024/02/19 11:09:37;;;;;;;25.98;5.88;;;11.50;99.90;;;;;;10499930;28;20458;-61
2024/02/19 11:14:40;;;;;;;21.80;4.32;;;11.60;99.90;;;;;;10503458;28;20943;-61
2024/02/19 11:19:43;;;;;;;31.53;5.50;;;11.30;99.90;;;;;;10495395;28;20055;-61
2024/02/19 11:24:45;;;;;;;28.58;6.30;;;11.60;99.90;;;;;;10505914;28;20623;-61
2024/02/19 11:29:47;;;;;;;27.15;5.90;;;11.30;99.90;;;;;;10491730;28;20885;-60
2024/02/19 11:34:51;;;;;;;24.05;5.15;;;11.50;99.90;;;;;;10499646;28;20499;-61
2024/02/19 11:39:53;;;;;;;26.17;7.22;;;11.50;99.90;;;;;;10502026;28;20222;-61
2024/02/19 11:44:56;;;;;;;21.83;6.63;;;10.90;99.90;;;;;;10489669;28;20055;-60
2024/02/19 11:49:59;;;;;;;25.30;6.13;;;10.60;99.90;;;;;;10495307;28;20095;-60
2024/02/19 11:55:01;;;;;;;25.05;5.18;;;10.80;99.90;;;;;;10486178;28;20802;-60
2024/02/19 12:00:06;;;;;;;17.88;3.97;;;10.60;99.90;;;;;;10493288;28;20055;-61
2024/02/19 12:05:11;;;;;;;12.05;3.63;;;10.50;99.90;;;;;;10511477;28;20039;-61
2024/02/19 12:10:13;;;;;;;23.52;6.75;;;10.30;99.90;;;;;;10518865;28;20154;-60
2024/02/19 12:15:16;;;;;;;11.20;3.17;;;10.40;99.90;;;;;;10517570;28;20048;-61
2024/02/19 12:20:19;;;;;;;;;;;10.30;99.90;;;;;;10519763;28;20073;-61
2024/02/19 12:25:24;;;;;;;24.73;5.03;;;10.20;99.90;;;;;;10521584;28;20012;-61
2024/02/19 12:30:25;;;;;;;17.85;4.78;;;10.40;99.90;;;;;;10515672;28;20048;-60
2024/02/19 12:35:29;;;;;;;17.35;4.80;;;10.30;99.90;;;;;;10519578;28;20040;-61
2024/02/19 12:40:31;;;;;;;20.95;5.35;;;10.20;99.90;;;;;;10523038;27;20055;-61
2024/02/19 12:45:33;;;;;;;24.43;4.93;;;10.20;99.90;;;;;;10525251;28;20505;-61
2024/02/19 12:50:37;;;;;;;29.67;6.85;;;10.30;99.90;;;;;;10525105;28;20491;-62
2024/02/19 12:55:40;;;;;;;15.80;4.28;;;10.30;99.90;;;;;;10514907;28;20067;-62
2024/02/19 13:00:42;;;;;;;21.05;5.43;;;10.30;99.90;;;;;;10515088;28;20122;-61
2024/02/19 13:05:46;;;;;;;24.33;4.50;;;10.70;99.90;;;;;;10517656;28;20060;-63
2024/02/19 13:10:49;;;;;;;24.08;5.47;;;10.60;99.90;;;;;;10518842;28;20039;-60
2024/02/19 13:15:54;;;;;;;18.30;4.05;;;10.60;99.90;;;;;;10516373;28;20105;-61
2024/02/19 13:20:58;;;;;;;15.68;3.58;;;10.60;99.90;;;;;;10516189;28;20370;-61
2024/02/19 13:26:02;;;;;;;25.88;4.97;;;10.80;99.90;;;;;;10523045;28;20122;-60
2024/02/19 13:31:04;;;;;;;13.45;3.53;;;10.60;99.90;;;;;;10514322;28;20051;-60
2024/02/19 13:36:08;;;;;;;28.90;3.85;;;10.70;99.90;;;;;;10514877;28;20047;-62
2024/02/19 13:41:10;;;;;;;24.70;4.07;;;10.50;99.90;;;;;;10504728;28;20060;-59
2024/02/19 13:46:13;;;;;;;23.98;5.03;;;10.50;99.90;;;;;;10509857;28;20055;-60
2024/02/19 13:51:16;;;;;;;22.85;5.13;;;10.60;99.90;;;;;;10517509;28;20081;-61
2024/02/19 13:56:18;;;;;;;28.30;4.35;;;10.40;99.90;;;;;;10512003;28;20074;-58
2024/02/19 14:01:22;;;;;;;14.30;3.37;;;10.50;99.90;;;;;;10513845;28;20122;-61
2024/02/19 14:06:25;;;;;;;18.25;3.40;;;10.50;99.90;;;;;;10515846;28;20070;-60
2024/02/19 14:11:28;;;;;;;26.58;5.97;;;10.30;99.90;;;;;;10507577;28;20060;-61
2024/02/19 14:16:31;;;;;;;40.92;7.13;;;9.90;99.90;;;;;;10504968;28;20048;-61
2024/02/19 14:21:38;;;;;;;20.58;5.15;;;9.90;99.90;;;;;;10506692;28;20526;-62
2024/02/19 14:26:40;;;;;;;25.83;5.32;;;10.10;99.90;;;;;;10502708;28;20036;-60
2024/02/19 14:31:42;;;;;;;48.70;4.03;;;10.00;99.90;;;;;;10508463;28;20067;-62
2024/02/19 14:36:46;;;;;;;0.10;0.10;;;10.20;99.90;;;;;;10499117;28;20113;-60
2024/02/19 14:41:48;;;;;;;2.60;2.40;;;10.20;99.90;;;;;;10506925;28;20622;-60
2024/02/19 14:46:50;;;;;;;0.10;0.10;;;10.00;99.90;;;;;;10501206;28;20055;-61
2024/02/19 14:51:54;;;;;;;1.10;1.07;;;10.10;99.90;;;;;;10498731;28;20146;-60
2024/02/19 14:56:58;;;;;;;0.10;0.10;;;10.10;99.90;;;;;;10502551;28;20143;-59
2024/02/19 15:02:01;;;;;;;0.10;0.10;;;10.40;99.90;;;;;;10492323;28;20059;-58
2024/02/19 15:07:08;;;;;;;0.10;0.10;;;10.60;99.90;;;;;;10493559;28;20055;-60
2024/02/19 15:12:10;;;;;;;0.10;0.10;;;10.20;99.90;;;;;;10498027;28;20056;-60
2024/02/19 15:17:12;;;;;;;22.38;5.45;;;10.30;99.90;;;;;;10503089;28;20052;-62
2024/02/19 15:22:16;;;;;;;23.97;5.07;;;10.30;99.90;;;;;;10504290;28;20060;-60
2024/02/19 15:27:18;;;;;;;37.53;5.70;;;10.20;99.90;;;;;;10499209;28;20253;-61
2024/02/19 15:32:21;;;;;;;27.70;6.28;;;10.50;99.90;;;;;;10505423;28;20175;-61
2024/02/19 15:37:25;;;;;;;32.35;4.55;;;10.40;99.90;;;;;;10497336;28;20235;-60
2024/02/19 15:42:27;;;;;;;15.25;3.22;;;10.30;99.90;;;;;;10501615;28;20079;-61
2024/02/19 15:47:32;;;;;;;29.42;3.83;;;10.40;99.90;;;;;;10485408;28;20171;-61
2024/02/19 15:52:36;;;;;;;13.70;3.15;;;10.40;99.90;;;;;;10503892;28;20472;-61
2024/02/19 15:57:38;;;;;;;0.10;0.10;;;10.50;99.90;;;;;;10495816;28;20041;-62
2024/02/19 16:02:40;;;;;;;0.28;0.28;;;11.00;99.90;;;;;;10500529;28;20048;-62
2024/02/19 16:07:44;;;;;;;0.10;0.10;;;10.60;99.90;;;;;;10502339;28;20749;-62
2024/02/19 16:12:46;;;;;;;0.20;0.20;;;10.60;99.90;;;;;;10494870;28;20055;-61
2024/02/19 16:17:48;;;;;;;0.10;0.10;;;10.30;99.90;;;;;;10500604;28;20056;-62
2024/02/19 16:22:53;;;;;;;0.32;0.32;;;10.10;99.90;;;;;;10501427;28;20121;-62
2024/02/19 16:27:57;;;;;;;0.10;0.10;;;10.30;99.90;;;;;;10494843;28;20048;-62
2024/02/19 16:33:01;;;;;;;0.17;0.17;;;10.60;99.90;;;;;;10494352;28;20055;-61
2024/02/19 16:38:06;;;;;;;6.20;3.83;;;10.30;99.90;;;;;;10489756;28;20246;-62
2024/02/19 16:43:09;;;;;;;0.10;0.10;;;10.50;99.90;;;;;;10490386;28;20103;-62
2024/02/19 16:48:16;;;;;;;2.10;1.90;;;10.50;99.90;;;;;;10493310;28;20051;-62
2024/02/19 16:53:19;;;;;;;0.10;0.10;;;10.20;99.90;;;;;;10488005;28;20071;-61
2024/02/19 16:58:21;;;;;;;0.75;0.75;;;10.30;99.90;;;;;;10488143;28;20055;-61
2024/02/19 17:03:26;;;;;;;0.10;0.10;;;10.20;99.90;;;;;;10492372;28;20056;-62
2024/02/19 17:08:32;;;;;;;0.10;0.10;;;10.70;99.90;;;;;;10491233;28;20052;-62
2024/02/19 17:13:36;;;;;;;0.40;0.40;;;10.20;99.90;;;;;;10493083;28;20592;-62
2024/02/19 17:18:39;;;;;;;;;;;10.30;99.90;;;;;;10497510;28;20052;-63
2024/02/19 17:23:44;;;;;;;0.13;0.13;;;12.50;99.90;;;;;;10508298;28;20040;-62
2024/02/19 17:28:46;;;;;;;13.32;1.65;;;10.50;99.90;;;;;;10505597;28;20053;-61
2024/02/19 17:33:48;;;;;;;0.30;0.30;;;10.50;99.90;;;;;;10504740;28;20143;-62
2024/02/19 17:38:52;;;;;;;0.43;0.43;;;9.90;99.90;;;;;;10501404;28;20108;-62
2024/02/19 17:43:54;;;;;;;0.20;0.20;;;9.70;99.90;;;;;;10506884;28;20885;-58
2024/02/19 17:48:56;;;;;;;7.13;2.08;;;10.40;99.90;;;;;;10513710;28;20101;-59
2024/02/19 17:54:00;;;;;;;0.10;0.10;;;10.30;99.90;;;;;;10515753;28;20062;-57
2024/02/19 17:59:02;;;;;;;0.10;0.10;;;10.20;99.90;;;;;;10513691;28;20113;-63
2024/02/19 18:04:05;;;;;;;0.10;0.10;;;9.50;99.90;;;;;;10512246;28;20827;-60
2024/02/19 18:09:10;;;;;;;0.90;0.90;;;9.40;99.90;;;;;;10509232;28;21393;-60
2024/02/19 18:14:13;;;;;;;0.10;0.10;;;9.40;99.90;;;;;;10513230;28;20093;-57
2024/02/19 18:19:15;;;;;;;0.10;0.10;;;9.40;99.90;;;;;;10510887;28;20108;-60
2024/02/19 18:24:19;;;;;;;0.10;0.10;;;9.70;99.90;;;;;;10517766;28;20519;-60
2024/02/19 18:29:21;;;;;;;0.30;0.30;;;9.30;99.90;;;;;;10508452;28;20119;-60
2024/02/19 18:34:24;;;;;;;0.40;0.40;;;9.20;99.90;;;;;;10512984;28;20087;-61
2024/02/19 18:39:31;;;;;;;;;;;9.40;99.90;;;;;;10514801;28;20067;-62
2024/02/19 18:44:33;;;;;;;0.20;0.20;;;9.30;99.90;;;;;;10521365;28;19938;-60
2024/02/19 18:49:35;;;;;;;0.20;0.20;;;9.30;99.90;;;;;;10506604;28;20048;-63
2024/02/19 18:54:40;;;;;;;7.87;2.53;;;9.30;99.90;;;;;;10514245;28;20051;-61
2024/02/19 18:59:43;;;;;;;1.15;1.15;;;9.20;99.90;;;;;;10512132;28;20052;-62
2024/02/19 19:04:45;;;;;;;0.10;0.10;;;9.20;99.90;;;;;;10504469;28;20125;-63
2024/02/19 19:09:49;;;;;;;0.20;0.20;;;9.40;99.90;;;;;;10514218;28;20095;-63
2024/02/19 19:14:51;;;;;;;0.85;0.85;;;9.40;99.90;;;;;;10507540;28;20101;-61
2024/02/19 19:19:54;;;;;;;0.10;0.10;;;9.20;99.90;;;;;;10512970;28;20104;-61
2024/02/19 19:24:57;;;;;;;4.07;1.30;;;9.10;99.90;;;;;;10509326;28;20079;-61
2024/02/19 19:29:59;;;;;;;0.20;0.20;;;9.10;99.90;;;;;;10513069;28;21006;-60
2024/02/19 19:35:02;;;;;;;0.10;0.10;;;9.20;99.90;;;;;;10513573;28;20105;-61
2024/02/19 19:40:07;;;;;;;0.10;0.10;;;9.10;99.90;;;;;;10521862;28;20051;-58
2024/02/19 19:45:10;;;;;;;0.30;0.30;;;9.00;99.90;;;;;;10510796;28;20059;-61
2024/02/19 19:50:14;;;;;;;0.60;0.60;;;9.50;99.90;;;;;;10513179;28;20603;-62
2024/02/19 19:55:17;;;;;;;2.97;2.78;;;10.00;99.90;;;;;;10507969;28;20044;-61
2024/02/19 20:00:20;;;;;;;0.10;0.10;;;10.70;99.90;;;;;;10515226;28;20388;-62
2024/02/19 20:05:22;;;;;;;0.45;0.45;;;10.40;99.90;;;;;;10513775;28;20059;-62
2024/02/19 20:10:26;;;;;;;0.38;0.38;;;10.50;99.90;;;;;;10515187;28;21019;-62
2024/02/19 20:15:28;;;;;;;0.17;0.17;;;10.80;99.90;;;;;;10502846;28;20054;-62
2024/02/19 20:20:30;;;;;;;0.27;0.27;;;10.00;99.90;;;;;;10507161;28;20089;-63
2024/02/19 20:25:33;;;;;;;0.10;0.10;;;10.10;99.90;;;;;;10507119;28;20039;-62
2024/02/19 20:30:39;;;;;;;1.05;0.95;;;10.60;99.90;;;;;;10497399;28;20349;-62
2024/02/19 20:35:49;;;;;;;0.38;0.38;;;10.50;99.90;;;;;;10496451;28;20592;-64
2024/02/19 20:40:54;;;;;;;0.55;0.55;;;10.80;99.90;;;;;;10505515;28;20662;-64
2024/02/19 20:46:06;;;;;;;;;;;;;;;;;;;;;
2024/02/19 20:51:09;;;;;;;0.10;0.10;;;11.00;99.90;;;;;;10501044;28;22569;-61
2024/02/19 20:56:16;;;;;;;0.25;0.25;;;12.00;99.90;;;;;;10502536;28;20248;-62
2024/02/19 21:01:19;;;;;;;2.83;1.85;;;10.80;99.90;;;;;;10498663;28;20039;-63
2024/02/19 21:06:33;;;;;;;0.10;0.10;;;11.20;99.90;;;;;;10504992;28;20046;-64
2024/02/19 21:11:36;;;;;;;0.10;0.10;;;11.50;99.90;;;;;;10511652;28;20058;-62
2024/02/19 21:16:56;;;;;;;0.25;0.25;;;11.10;99.90;;;;;;10500854;28;20048;-62
2024/02/19 21:22:04;;;;;;;0.13;0.13;;;11.70;99.90;;;;;;10506527;28;20059;-63
2024/02/19 21:27:16;;;;;;;0.40;0.40;;;12.60;99.90;;;;;;10507812;28;20051;-65
2024/02/19 21:32:20;;;;;;;0.20;0.20;;;12.80;99.90;;;;;;10502813;28;20332;-62
2024/02/19 21:37:24;;;;;;;0.30;0.30;;;12.60;99.90;;;;;;10515550;28;20063;-65
2024/02/19 21:42:29;;;;;;;4.85;1.45;;;12.10;99.90;;;;;;10506035;28;20059;-62
2024/02/19 21:47:37;;;;;;;0.55;0.55;;;12.80;99.90;;;;;;10514104;28;20221;-60
2024/02/19 21:52:40;;;;;;;8.10;1.20;;;12.90;99.90;;;;;;10509275;28;20058;-62
2024/02/19 21:57:43;;;;;;;0.10;0.10;;;11.40;99.90;;;;;;10505375;28;20761;-63
2024/02/19 22:02:48;;;;;;;0.28;0.28;;;12.10;99.90;;;;;;10509867;28;21003;-62
2024/02/19 22:07:50;;;;;;;2.05;1.02;;;10.60;99.90;;;;;;10511054;28;20490;-63
2024/02/19 22:12:56;;;;;;;1.88;1.35;;;10.70;99.90;;;;;;10516094;28;20584;-64
2024/02/19 22:17:58;;;;;;;0.17;0.17;;;10.50;99.90;;;;;;10507183;28;20144;-63
2024/02/19 22:23:00;;;;;;;0.30;0.30;;;11.70;99.90;;;;;;10505472;28;20055;-61
2024/02/19 22:28:04;;;;;;;0.30;0.30;;;11.70;99.90;;;;;;10512200;28;20142;-63
2024/02/19 22:33:06;;;;;;;0.10;0.10;;;11.90;99.90;;;;;;10505340;28;20055;-63
2024/02/19 22:38:08;;;;;;;2.40;1.75;;;11.50;99.90;;;;;;10515706;28;20414;-63
2024/02/19 22:43:12;;;;;;;0.30;0.30;;;12.30;99.90;;;;;;10516063;28;20136;-62
2024/02/19 22:48:14;;;;;;;0.15;0.15;;;12.00;99.90;;;;;;10517997;28;20200;-64
2024/02/19 22:53:18;;;;;;;0.40;0.40;;;11.20;99.90;;;;;;10510506;28;20976;-63
2024/02/19 22:58:21;;;;;;;0.57;0.57;;;11.90;99.90;;;;;;10525209;28;20167;-64
2024/02/19 23:03:24;;;;;;;3.95;2.75;;;11.80;99.90;;;;;;10520179;28;20074;-63
2024/02/19 23:08:27;;;;;;;3.95;2.03;;;12.20;99.90;;;;;;10514229;28;20040;-63
2024/02/19 23:13:31;;;;;;;1.33;1.23;;;12.00;99.90;;;;;;10509424;28;22578;-62
2024/02/19 23:18:33;;;;;;;0.20;0.20;;;12.40;99.90;;;;;;10509403;28;20043;-62
2024/02/19 23:23:35;;;;;;;0.73;0.73;;;11.00;99.90;;;;;;10515000;28;20043;-62
2024/02/19 23:28:38;;;;;;;1.17;0.70;;;11.70;99.90;;;;;;10508521;28;20129;-62
2024/02/19 23:33:40;;;;;;;0.20;0.20;;;11.60;99.90;;;;;;10518477;28;20047;-63
2024/02/19 23:38:42;;;;;;;0.30;0.30;;;10.60;99.90;;;;;;10510448;28;20475;-61
2024/02/19 23:43:46;;;;;;;2.47;2.28;;;11.50;99.90;;;;;;10507588;28;20469;-62
2024/02/19 23:48:48;;;;;;;0.20;0.20;;;10.70;99.90;;;;;;10514856;28;20198;-63
2024/02/19 23:53:50;;;;;;;0.10;0.10;;;11.70;99.90;;;;;;10518481;28;20083;-64
2024/02/19 23:58:53;;;;;;;0.10;0.10;;;11.00;99.90;;;;;;10512822;28;20044;-61
